sensor_id;sensor_type;location;lat;lon;timestamp;pressure;altitude;pressure_sealevel;temperature;humidity
63663;BME280;49815;51.618;0.336;2022-09-06T00:01:29;100667.82;;;20.14;50.93
63663;BME280;49815;51.618;0.336;2022-09-06T00:03:54;100656.47;;;20.12;51.37
63663;BME280;49815;51.618;0.336;2022-09-06T00:06:19;100660.55;;;20.17;51.05
63663;BME280;49815;51.618;0.336;2022-09-06T00:08:46;100654.58;;;20.33;50.79
63663;BME280;49815;51.618;0.336;2022-09-06T00:11:11;100649.25;;;20.45;50.56
63663;BME280;49815;51.618;0.336;2022-09-06T00:13:36;100655.09;;;20.50;50.22
63663;BME280;49815;51.618;0.336;2022-09-06T00:16:05;100651.72;;;20.52;49.80
63663;BME280;49815;51.618;0.336;2022-09-06T00:18:25;100649.35;;;20.09;50.15
63663;BME280;49815;51.618;0.336;2022-09-06T00:20:51;100644.77;;;20.36;50.11
63663;BME280;49815;51.618;0.336;2022-09-06T00:23:16;100645.64;;;20.17;50.31
63663;BME280;49815;51.618;0.336;2022-09-06T00:25:41;100649.10;;;20.07;50.01
63663;BME280;49815;51.618;0.336;2022-09-06T00:28:08;100644.43;;;20.01;50.13
63663;BME280;49815;51.618;0.336;2022-09-06T00:30:32;100645.55;;;19.92;50.15
63663;BME280;49815;51.618;0.336;2022-09-06T00:32:57;100645.31;;;20.18;49.90
63663;BME280;49815;51.618;0.336;2022-09-06T00:35:25;100647.00;;;19.81;50.02
63663;BME280;49815;51.618;0.336;2022-09-06T00:37:47;100644.25;;;20.20;50.19
63663;BME280;49815;51.618;0.336;2022-09-06T00:40:13;100644.57;;;20.20;50.22
63663;BME280;49815;51.618;0.336;2022-09-06T00:42:38;100644.08;;;19.63;50.71
63663;BME280;49815;51.618;0.336;2022-09-06T00:45:04;100649.07;;;19.71;50.51
63663;BME280;49815;51.618;0.336;2022-09-06T00:47:29;100648.21;;;19.73;50.58
63663;BME280;49815;51.618;0.336;2022-09-06T00:49:55;100649.20;;;19.64;50.56
63663;BME280;49815;51.618;0.336;2022-09-06T00:52:19;100648.83;;;19.61;50.31
63663;BME280;49815;51.618;0.336;2022-09-06T00:54:44;100648.64;;;20.06;50.17
63663;BME280;49815;51.618;0.336;2022-09-06T00:57:10;100648.29;;;19.45;49.83
63663;BME280;49815;51.618;0.336;2022-09-06T00:59:36;100642.72;;;19.55;50.09
63663;BME280;49815;51.618;0.336;2022-09-06T01:02:00;100639.35;;;19.74;50.30
63663;BME280;49815;51.618;0.336;2022-09-06T01:04:25;100637.69;;;19.58;50.46
63663;BME280;49815;51.618;0.336;2022-09-06T01:06:56;100635.76;;;19.49;50.41
63663;BME280;49815;51.618;0.336;2022-09-06T01:09:28;100630.57;;;19.44;50.29
63663;BME280;49815;51.618;0.336;2022-09-06T01:11:54;100626.82;;;19.41;50.22
63663;BME280;49815;51.618;0.336;2022-09-06T01:14:13;100624.83;;;19.43;50.56
63663;BME280;49815;51.618;0.336;2022-09-06T01:16:37;100623.65;;;19.06;50.49
63663;BME280;49815;51.618;0.336;2022-09-06T01:19:12;100619.65;;;19.24;50.54
63663;BME280;49815;51.618;0.336;2022-09-06T01:21:31;100619.08;;;19.28;50.55
63663;BME280;49815;51.618;0.336;2022-09-06T01:28:39;100620.05;;;18.78;50.87
63663;BME280;49815;51.618;0.336;2022-09-06T01:31:13;100624.88;;;19.23;50.85
63663;BME280;49815;51.618;0.336;2022-09-06T01:33:32;100627.18;;;18.67;50.75
63663;BME280;49815;51.618;0.336;2022-09-06T01:35:58;100626.77;;;18.75;51.33
63663;BME280;49815;51.618;0.336;2022-09-06T01:38:19;100625.97;;;18.56;51.33
63663;BME280;49815;51.618;0.336;2022-09-06T01:40:43;100626.18;;;18.70;51.49
63663;BME280;49815;51.618;0.336;2022-09-06T01:43:10;100626.40;;;18.87;51.34
63663;BME280;49815;51.618;0.336;2022-09-06T01:45:40;100619.93;;;18.89;51.40
63663;BME280;49815;51.618;0.336;2022-09-06T01:48:07;100618.31;;;18.75;51.30
63663;BME280;49815;51.618;0.336;2022-09-06T01:50:37;100616.26;;;19.20;51.25
63663;BME280;49815;51.618;0.336;2022-09-06T01:52:58;100610.26;;;18.89;51.71
63663;BME280;49815;51.618;0.336;2022-09-06T01:55:22;100604.21;;;18.44;52.64
63663;BME280;49815;51.618;0.336;2022-09-06T01:57:54;100604.06;;;18.96;51.92
63663;BME280;49815;51.618;0.336;2022-09-06T02:00:09;100607.47;;;18.47;52.41
63663;BME280;49815;51.618;0.336;2022-09-06T02:02:40;100606.03;;;18.51;52.73
63663;BME280;49815;51.618;0.336;2022-09-06T02:05:03;100605.51;;;18.13;53.92
63663;BME280;49815;51.618;0.336;2022-09-06T02:07:24;100599.02;;;18.31;53.89
63663;BME280;49815;51.618;0.336;2022-09-06T02:09:52;100592.12;;;18.33;53.93
63663;BME280;49815;51.618;0.336;2022-09-06T02:12:14;100584.35;;;18.71;53.39
63663;BME280;49815;51.618;0.336;2022-09-06T02:14:41;100581.70;;;18.76;53.36
63663;BME280;49815;51.618;0.336;2022-09-06T02:17:04;100586.22;;;18.89;52.98
63663;BME280;49815;51.618;0.336;2022-09-06T02:19:33;100580.01;;;18.18;53.82
63663;BME280;49815;51.618;0.336;2022-09-06T02:21:57;100577.28;;;18.28;53.66
63663;BME280;49815;51.618;0.336;2022-09-06T02:24:25;100575.70;;;18.86;53.35
63663;BME280;49815;51.618;0.336;2022-09-06T02:26:45;100574.42;;;18.59;53.31
63663;BME280;49815;51.618;0.336;2022-09-06T02:29:10;100570.97;;;18.79;52.94
63663;BME280;49815;51.618;0.336;2022-09-06T02:31:38;100572.98;;;18.79;52.81
63663;BME280;49815;51.618;0.336;2022-09-06T02:34:01;100572.96;;;18.83;52.66
63663;BME280;49815;51.618;0.336;2022-09-06T02:36:26;100575.01;;;18.43;52.90
63663;BME280;49815;51.618;0.336;2022-09-06T02:38:53;100571.24;;;18.78;52.87
63663;BME280;49815;51.618;0.336;2022-09-06T02:41:19;100570.12;;;18.96;52.52
63663;BME280;49815;51.618;0.336;2022-09-06T02:43:42;100571.85;;;18.48;52.17
63663;BME280;49815;51.618;0.336;2022-09-06T02:46:08;100572.77;;;18.71;52.35
63663;BME280;49815;51.618;0.336;2022-09-06T02:48:32;100569.50;;;19.05;52.20
63663;BME280;49815;51.618;0.336;2022-09-06T02:51:02;100574.98;;;18.77;52.24
63663;BME280;49815;51.618;0.336;2022-09-06T02:53:23;100573.95;;;19.00;52.02
63663;BME280;49815;51.618;0.336;2022-09-06T02:55:49;100571.35;;;19.15;52.10
63663;BME280;49815;51.618;0.336;2022-09-06T02:58:15;100571.92;;;19.13;51.77
63663;BME280;49815;51.618;0.336;2022-09-06T03:00:39;100566.65;;;19.12;51.60
63663;BME280;49815;51.618;0.336;2022-09-06T03:03:05;100563.64;;;19.08;51.79
63663;BME280;49815;51.618;0.336;2022-09-06T03:05:30;100560.32;;;19.09;51.93
63663;BME280;49815;51.618;0.336;2022-09-06T03:07:56;100560.57;;;19.08;51.85
63663;BME280;49815;51.618;0.336;2022-09-06T03:10:21;100558.54;;;19.29;51.82
63663;BME280;49815;51.618;0.336;2022-09-06T03:12:46;100554.01;;;19.02;51.63
63663;BME280;49815;51.618;0.336;2022-09-06T03:15:14;100539.41;;;18.48;51.83
63663;BME280;49815;51.618;0.336;2022-09-06T03:17:37;100529.88;;;18.97;51.86
63663;BME280;49815;51.618;0.336;2022-09-06T03:20:04;100526.23;;;18.88;51.71
63663;BME280;49815;51.618;0.336;2022-09-06T03:22:28;100526.11;;;18.86;51.99
63663;BME280;49815;51.618;0.336;2022-09-06T03:24:54;100521.52;;;18.89;52.10
63663;BME280;49815;51.618;0.336;2022-09-06T03:27:18;100522.49;;;18.74;51.78
63663;BME280;49815;51.618;0.336;2022-09-06T03:29:44;100520.85;;;19.05;51.98
63663;BME280;49815;51.618;0.336;2022-09-06T03:32:09;100516.44;;;18.47;52.65
63663;BME280;49815;51.618;0.336;2022-09-06T03:34:34;100509.02;;;18.76;52.33
63663;BME280;49815;51.618;0.336;2022-09-06T03:37:00;100506.68;;;18.83;52.34
63663;BME280;49815;51.618;0.336;2022-09-06T03:39:25;100507.63;;;19.16;52.13
63663;BME280;49815;51.618;0.336;2022-09-06T03:41:50;100509.26;;;18.99;51.86
63663;BME280;49815;51.618;0.336;2022-09-06T03:44:15;100505.50;;;18.94;51.18
63663;BME280;49815;51.618;0.336;2022-09-06T03:46:40;100504.11;;;19.18;51.39
63663;BME280;49815;51.618;0.336;2022-09-06T03:49:06;100509.27;;;18.84;51.18
63663;BME280;49815;51.618;0.336;2022-09-06T03:51:31;100511.02;;;18.89;50.83
63663;BME280;49815;51.618;0.336;2022-09-06T03:53:56;100505.18;;;18.34;50.89
63663;BME280;49815;51.618;0.336;2022-09-06T03:56:21;100501.92;;;18.53;51.01
63663;BME280;49815;51.618;0.336;2022-09-06T03:58:47;100494.18;;;18.46;51.05
63663;BME280;49815;51.618;0.336;2022-09-06T04:01:12;100492.32;;;18.39;50.90
63663;BME280;49815;51.618;0.336;2022-09-06T04:03:38;100491.57;;;18.42;51.25
63663;BME280;49815;51.618;0.336;2022-09-06T04:06:04;100494.68;;;18.67;50.96
63663;BME280;49815;51.618;0.336;2022-09-06T04:08:28;100501.50;;;18.68;51.54
63663;BME280;49815;51.618;0.336;2022-09-06T04:10:54;100499.74;;;18.56;50.63
63663;BME280;49815;51.618;0.336;2022-09-06T04:13:19;100488.77;;;18.29;51.70
63663;BME280;49815;51.618;0.336;2022-09-06T04:15:45;100481.45;;;18.25;52.12
63663;BME280;49815;51.618;0.336;2022-09-06T04:18:10;100481.70;;;18.16;52.79
63663;BME280;49815;51.618;0.336;2022-09-06T04:20:36;100481.79;;;18.77;52.67
63663;BME280;49815;51.618;0.336;2022-09-06T04:23:02;100486.91;;;18.45;52.81
63663;BME280;49815;51.618;0.336;2022-09-06T04:25:28;100486.47;;;18.20;52.83
63663;BME280;49815;51.618;0.336;2022-09-06T04:27:53;100484.85;;;18.37;53.02
63663;BME280;49815;51.618;0.336;2022-09-06T04:30:18;100484.93;;;18.04;52.94
63663;BME280;49815;51.618;0.336;2022-09-06T04:32:43;100486.75;;;18.82;52.86
63663;BME280;49815;51.618;0.336;2022-09-06T04:35:09;100493.22;;;18.57;52.50
63663;BME280;49815;51.618;0.336;2022-09-06T04:37:34;100497.12;;;18.32;52.52
63663;BME280;49815;51.618;0.336;2022-09-06T04:40:01;100494.18;;;18.59;52.80
63663;BME280;49815;51.618;0.336;2022-09-06T04:42:26;100493.04;;;17.97;52.94
63663;BME280;49815;51.618;0.336;2022-09-06T04:44:50;100488.63;;;18.33;52.69
63663;BME280;49815;51.618;0.336;2022-09-06T04:47:16;100489.93;;;18.16;52.69
63663;BME280;49815;51.618;0.336;2022-09-06T04:49:42;100492.31;;;18.23;52.28
63663;BME280;49815;51.618;0.336;2022-09-06T04:52:08;100492.50;;;18.28;52.39
63663;BME280;49815;51.618;0.336;2022-09-06T04:54:32;100493.00;;;18.07;52.20
63663;BME280;49815;51.618;0.336;2022-09-06T04:56:58;100493.50;;;18.61;52.44
63663;BME280;49815;51.618;0.336;2022-09-06T04:59:24;100490.50;;;18.25;52.22
63663;BME280;49815;51.618;0.336;2022-09-06T05:01:49;100485.90;;;18.20;52.21
63663;BME280;49815;51.618;0.336;2022-09-06T05:04:15;100482.04;;;17.48;51.84
63663;BME280;49815;51.618;0.336;2022-09-06T05:06:40;100482.48;;;18.10;51.56
63663;BME280;49815;51.618;0.336;2022-09-06T05:09:05;100477.45;;;18.50;51.71
63663;BME280;49815;51.618;0.336;2022-09-06T05:11:31;100472.97;;;18.50;51.76
63663;BME280;49815;51.618;0.336;2022-09-06T05:13:56;100471.06;;;18.51;51.37
63663;BME280;49815;51.618;0.336;2022-09-06T05:16:22;100467.27;;;18.75;51.56
63663;BME280;49815;51.618;0.336;2022-09-06T05:18:47;100462.69;;;18.45;51.48
63663;BME280;49815;51.618;0.336;2022-09-06T05:21:13;100463.85;;;18.40;51.37
63663;BME280;49815;51.618;0.336;2022-09-06T05:23:38;100457.90;;;18.35;50.52
63663;BME280;49815;51.618;0.336;2022-09-06T05:26:03;100457.74;;;18.45;50.92
63663;BME280;49815;51.618;0.336;2022-09-06T05:28:29;100456.56;;;18.64;50.96
63663;BME280;49815;51.618;0.336;2022-09-06T05:31:04;100460.45;;;18.62;50.63
63663;BME280;49815;51.618;0.336;2022-09-06T05:33:21;100468.66;;;18.26;50.46
63663;BME280;49815;51.618;0.336;2022-09-06T05:35:45;100470.30;;;18.49;50.21
63663;BME280;49815;51.618;0.336;2022-09-06T05:38:10;100470.09;;;18.02;50.32
63663;BME280;49815;51.618;0.336;2022-09-06T05:40:35;100468.77;;;18.22;49.99
63663;BME280;49815;51.618;0.336;2022-09-06T05:43:00;100475.43;;;18.39;50.00
63663;BME280;49815;51.618;0.336;2022-09-06T05:45:26;100477.99;;;18.60;50.22
63663;BME280;49815;51.618;0.336;2022-09-06T05:47:53;100477.37;;;18.60;50.15
63663;BME280;49815;51.618;0.336;2022-09-06T05:50:18;100478.51;;;18.12;50.10
63663;BME280;49815;51.618;0.336;2022-09-06T05:52:44;100479.76;;;18.40;50.39
63663;BME280;49815;51.618;0.336;2022-09-06T05:55:09;100483.31;;;18.16;50.40
63663;BME280;49815;51.618;0.336;2022-09-06T05:57:35;100482.32;;;18.25;49.91
63663;BME280;49815;51.618;0.336;2022-09-06T06:00:01;100492.06;;;18.22;49.84
63663;BME280;49815;51.618;0.336;2022-09-06T06:02:26;100493.72;;;18.59;50.04
63663;BME280;49815;51.618;0.336;2022-09-06T06:04:51;100498.39;;;18.47;50.34
63663;BME280;49815;51.618;0.336;2022-09-06T06:07:17;100496.61;;;18.50;50.66
63663;BME280;49815;51.618;0.336;2022-09-06T06:09:43;100492.89;;;18.16;51.35
63663;BME280;49815;51.618;0.336;2022-09-06T06:12:13;100494.09;;;18.66;51.42
63663;BME280;49815;51.618;0.336;2022-09-06T06:14:33;100492.37;;;18.31;52.08
63663;BME280;49815;51.618;0.336;2022-09-06T06:16:59;100491.11;;;19.00;52.11
63663;BME280;49815;51.618;0.336;2022-09-06T06:19:24;100494.36;;;19.01;52.38
63663;BME280;49815;51.618;0.336;2022-09-06T06:21:49;100498.97;;;18.63;52.60
63663;BME280;49815;51.618;0.336;2022-09-06T06:24:15;100498.30;;;18.87;52.21
63663;BME280;49815;51.618;0.336;2022-09-06T06:26:40;100497.54;;;18.75;52.46
63663;BME280;49815;51.618;0.336;2022-09-06T06:29:06;100498.29;;;18.96;52.43
63663;BME280;49815;51.618;0.336;2022-09-06T06:31:32;100499.07;;;19.47;51.65
63663;BME280;49815;51.618;0.336;2022-09-06T06:33:57;100499.12;;;20.43;50.32
63663;BME280;49815;51.618;0.336;2022-09-06T06:36:25;100495.83;;;20.93;48.03
63663;BME280;49815;51.618;0.336;2022-09-06T06:38:51;100501.06;;;21.34;46.30
63663;BME280;49815;51.618;0.336;2022-09-06T06:41:16;100503.88;;;20.93;47.41
63663;BME280;49815;51.618;0.336;2022-09-06T06:43:39;100500.50;;;20.13;48.82
63663;BME280;49815;51.618;0.336;2022-09-06T06:46:05;100497.45;;;20.82;48.64
63663;BME280;49815;51.618;0.336;2022-09-06T06:48:30;100496.57;;;20.67;48.33
63663;BME280;49815;51.618;0.336;2022-09-06T06:50:55;100498.91;;;20.36;48.73
63663;BME280;49815;51.618;0.336;2022-09-06T06:53:20;100502.50;;;20.06;49.45
63663;BME280;49815;51.618;0.336;2022-09-06T06:55:45;100500.00;;;20.51;48.81
63663;BME280;49815;51.618;0.336;2022-09-06T06:58:11;100501.93;;;19.90;49.61
63663;BME280;49815;51.618;0.336;2022-09-06T07:00:36;100506.68;;;19.91;50.52
63663;BME280;49815;51.618;0.336;2022-09-06T07:03:01;100505.32;;;20.12;51.14
63663;BME280;49815;51.618;0.336;2022-09-06T07:05:26;100501.92;;;19.71;51.88
63663;BME280;49815;51.618;0.336;2022-09-06T07:07:53;100496.81;;;19.53;52.48
63663;BME280;49815;51.618;0.336;2022-09-06T07:10:17;100501.87;;;18.82;53.66
63663;BME280;49815;51.618;0.336;2022-09-06T07:12:43;100512.30;;;18.45;55.24
63663;BME280;49815;51.618;0.336;2022-09-06T07:15:09;100511.44;;;18.26;56.12
63663;BME280;49815;51.618;0.336;2022-09-06T07:17:34;100510.88;;;18.87;54.71
63663;BME280;49815;51.618;0.336;2022-09-06T07:20:01;100516.18;;;19.60;54.32
63663;BME280;49815;51.618;0.336;2022-09-06T07:22:26;100517.52;;;19.53;53.76
63663;BME280;49815;51.618;0.336;2022-09-06T07:24:52;100521.52;;;18.94;54.00
63663;BME280;49815;51.618;0.336;2022-09-06T07:27:17;100523.27;;;18.99;54.25
63663;BME280;49815;51.618;0.336;2022-09-06T07:29:43;100522.24;;;19.05;54.67
63663;BME280;49815;51.618;0.336;2022-09-06T07:32:09;100517.88;;;19.10;54.34
63663;BME280;49815;51.618;0.336;2022-09-06T07:34:33;100516.99;;;19.36;53.74
63663;BME280;49815;51.618;0.336;2022-09-06T07:37:00;100517.54;;;19.40;53.61
63663;BME280;49815;51.618;0.336;2022-09-06T07:39:25;100519.41;;;19.69;52.33
63663;BME280;49815;51.618;0.336;2022-09-06T07:41:50;100525.20;;;19.69;53.39
63663;BME280;49815;51.618;0.336;2022-09-06T07:44:15;100525.44;;;19.96;52.90
63663;BME280;49815;51.618;0.336;2022-09-06T07:46:41;100525.47;;;19.73;53.33
63663;BME280;49815;51.618;0.336;2022-09-06T07:49:08;100527.36;;;19.49;53.35
63663;BME280;49815;51.618;0.336;2022-09-06T07:51:32;100529.16;;;19.55;53.71
63663;BME280;49815;51.618;0.336;2022-09-06T07:53:58;100535.95;;;19.26;53.79
63663;BME280;49815;51.618;0.336;2022-09-06T07:56:24;100533.73;;;19.52;54.09
63663;BME280;49815;51.618;0.336;2022-09-06T07:58:50;100526.60;;;19.95;53.08
63663;BME280;49815;51.618;0.336;2022-09-06T08:01:18;100521.02;;;20.11;52.69
63663;BME280;49815;51.618;0.336;2022-09-06T08:03:40;100511.77;;;20.74;52.13
63663;BME280;49815;51.618;0.336;2022-09-06T08:06:06;100515.43;;;20.92;51.38
63663;BME280;49815;51.618;0.336;2022-09-06T08:08:31;100521.00;;;20.47;51.85
63663;BME280;49815;51.618;0.336;2022-09-06T08:10:58;100521.40;;;21.34;51.23
63663;BME280;49815;51.618;0.336;2022-09-06T08:13:22;100526.79;;;21.46;51.01
63663;BME280;49815;51.618;0.336;2022-09-06T08:15:48;100533.59;;;21.47;49.18
63663;BME280;49815;51.618;0.336;2022-09-06T08:18:13;100535.77;;;21.18;50.80
63663;BME280;49815;51.618;0.336;2022-09-06T08:20:38;100534.21;;;22.07;49.63
63663;BME280;49815;51.618;0.336;2022-09-06T08:23:08;100525.88;;;22.52;47.66
63663;BME280;49815;51.618;0.336;2022-09-06T08:25:28;100523.46;;;22.79;46.71
63663;BME280;49815;51.618;0.336;2022-09-06T08:27:54;100519.33;;;21.75;48.31
63663;BME280;49815;51.618;0.336;2022-09-06T08:30:19;100518.74;;;21.47;47.49
63663;BME280;49815;51.618;0.336;2022-09-06T08:32:43;100523.63;;;21.37;49.47
63663;BME280;49815;51.618;0.336;2022-09-06T08:35:10;100523.61;;;21.76;48.28
63663;BME280;49815;51.618;0.336;2022-09-06T08:37:34;100522.44;;;21.79;48.11
63663;BME280;49815;51.618;0.336;2022-09-06T08:39:59;100527.71;;;20.95;49.29
63663;BME280;49815;51.618;0.336;2022-09-06T08:42:25;100529.42;;;20.80;48.71
63663;BME280;49815;51.618;0.336;2022-09-06T08:44:51;100527.17;;;21.33;48.59
63663;BME280;49815;51.618;0.336;2022-09-06T08:49:41;100520.85;;;22.25;46.83
63663;BME280;49815;51.618;0.336;2022-09-06T08:52:16;100529.96;;;22.14;46.70
63663;BME280;49815;51.618;0.336;2022-09-06T08:54:35;100536.65;;;21.00;47.69
63663;BME280;49815;51.618;0.336;2022-09-06T08:57:03;100535.72;;;21.90;47.10
63663;BME280;49815;51.618;0.336;2022-09-06T08:59:20;100549.17;;;21.32;48.02
63663;BME280;49815;51.618;0.336;2022-09-06T09:01:59;100555.70;;;21.07;48.63
63663;BME280;49815;51.618;0.336;2022-09-06T09:04:13;100562.25;;;20.58;48.55
63663;BME280;49815;51.618;0.336;2022-09-06T09:06:37;100561.43;;;20.62;48.55
63663;BME280;49815;51.618;0.336;2022-09-06T09:09:04;100566.41;;;20.23;49.80
63663;BME280;49815;51.618;0.336;2022-09-06T09:11:26;100556.42;;;21.19;48.90
63663;BME280;49815;51.618;0.336;2022-09-06T09:13:53;100549.51;;;21.74;47.51
63663;BME280;49815;51.618;0.336;2022-09-06T09:16:17;100547.51;;;20.92;46.86
63663;BME280;49815;51.618;0.336;2022-09-06T09:18:44;100548.26;;;21.21;47.73
63663;BME280;49815;51.618;0.336;2022-09-06T09:21:06;100542.93;;;21.33;47.47
63663;BME280;49815;51.618;0.336;2022-09-06T09:23:32;100541.82;;;21.26;46.47
63663;BME280;49815;51.618;0.336;2022-09-06T09:26:01;100542.37;;;21.56;46.85
63663;BME280;49815;51.618;0.336;2022-09-06T09:28:23;100536.71;;;21.93;45.97
63663;BME280;49815;51.618;0.336;2022-09-06T09:30:50;100536.06;;;22.03;45.73
63663;BME280;49815;51.618;0.336;2022-09-06T09:33:21;100535.21;;;22.32;45.21
63663;BME280;49815;51.618;0.336;2022-09-06T09:35:40;100532.53;;;22.49;44.22
63663;BME280;49815;51.618;0.336;2022-09-06T09:38:06;100538.91;;;22.51;44.31
63663;BME280;49815;51.618;0.336;2022-09-06T09:40:31;100537.38;;;22.52;44.93
63663;BME280;49815;51.618;0.336;2022-09-06T09:42:53;100547.81;;;23.00;43.83
63663;BME280;49815;51.618;0.336;2022-09-06T09:45:24;100548.85;;;22.37;44.22
63663;BME280;49815;51.618;0.336;2022-09-06T09:47:43;100552.43;;;22.41;44.10
63663;BME280;49815;51.618;0.336;2022-09-06T09:50:24;100547.09;;;22.15;44.61
63663;BME280;49815;51.618;0.336;2022-09-06T09:52:42;100539.62;;;22.21;45.03
63663;BME280;49815;51.618;0.336;2022-09-06T09:55:00;100534.48;;;22.22;44.40
63663;BME280;49815;51.618;0.336;2022-09-06T09:57:24;100535.89;;;22.68;44.24
63663;BME280;49815;51.618;0.336;2022-09-06T09:59:51;100538.27;;;22.62;43.94
63663;BME280;49815;51.618;0.336;2022-09-06T10:02:18;100537.50;;;22.00;44.14
63663;BME280;49815;51.618;0.336;2022-09-06T10:04:45;100535.70;;;22.36;43.44
63663;BME280;49815;51.618;0.336;2022-09-06T10:07:10;100527.47;;;23.05;43.27
63663;BME280;49815;51.618;0.336;2022-09-06T10:09:32;100525.43;;;23.13;42.13
63663;BME280;49815;51.618;0.336;2022-09-06T10:11:56;100518.72;;;23.48;41.86
63663;BME280;49815;51.618;0.336;2022-09-06T10:14:27;100516.79;;;23.46;42.28
63663;BME280;49815;51.618;0.336;2022-09-06T10:16:44;100514.24;;;23.14;43.00
63663;BME280;49815;51.618;0.336;2022-09-06T10:19:20;100515.36;;;23.93;41.90
63663;BME280;49815;51.618;0.336;2022-09-06T10:21:35;100513.03;;;24.00;40.70
63663;BME280;49815;51.618;0.336;2022-09-06T10:24:04;100512.09;;;23.87;40.76
63663;BME280;49815;51.618;0.336;2022-09-06T10:26:31;100516.44;;;23.32;41.65
63663;BME280;49815;51.618;0.336;2022-09-06T10:28:55;100511.95;;;23.09;42.87
63663;BME280;49815;51.618;0.336;2022-09-06T10:33:52;100532.19;;;22.87;43.05
63663;BME280;49815;51.618;0.336;2022-09-06T10:36:06;100525.95;;;22.30;43.25
63663;BME280;49815;51.618;0.336;2022-09-06T10:38:40;100535.23;;;22.60;42.97
63663;BME280;49815;51.618;0.336;2022-09-06T10:43:23;100536.69;;;22.91;42.76
63663;BME280;49815;51.618;0.336;2022-09-06T10:45:56;100526.42;;;22.05;43.69
63663;BME280;49815;51.618;0.336;2022-09-06T10:48:17;100524.93;;;22.82;42.83
63663;BME280;49815;51.618;0.336;2022-09-06T10:50:44;100522.79;;;22.34;42.71
63663;BME280;49815;51.618;0.336;2022-09-06T10:53:07;100518.93;;;22.32;42.06
63663;BME280;49815;51.618;0.336;2022-09-06T10:55:28;100516.38;;;22.52;41.28
63663;BME280;49815;51.618;0.336;2022-09-06T10:57:56;100523.48;;;22.03;42.02
63663;BME280;49815;51.618;0.336;2022-09-06T11:00:18;100524.46;;;21.98;41.72
63663;BME280;49815;51.618;0.336;2022-09-06T11:02:47;100525.97;;;22.29;42.06
63663;BME280;49815;51.618;0.336;2022-09-06T11:05:10;100524.49;;;22.34;41.38
63663;BME280;49815;51.618;0.336;2022-09-06T11:07:36;100522.47;;;22.38;41.38
63663;BME280;49815;51.618;0.336;2022-09-06T11:10:03;100519.83;;;22.52;41.04
63663;BME280;49815;51.618;0.336;2022-09-06T11:12:31;100511.40;;;22.75;40.35
63663;BME280;49815;51.618;0.336;2022-09-06T11:14:49;100515.64;;;22.55;39.97
63663;BME280;49815;51.618;0.336;2022-09-06T11:17:18;100517.63;;;22.27;39.75
63663;BME280;49815;51.618;0.336;2022-09-06T11:19:43;100512.12;;;22.68;39.98
63663;BME280;49815;51.618;0.336;2022-09-06T11:24:39;100516.25;;;23.04;39.40
63663;BME280;49815;51.618;0.336;2022-09-06T11:27:03;100514.71;;;23.14;39.63
63663;BME280;49815;51.618;0.336;2022-09-06T11:29:22;100510.85;;;23.75;38.96
63663;BME280;49815;51.618;0.336;2022-09-06T11:31:51;100508.77;;;23.68;38.55
63663;BME280;49815;51.618;0.336;2022-09-06T11:34:18;100500.81;;;22.85;39.06
63663;BME280;49815;51.618;0.336;2022-09-06T11:36:38;100502.53;;;23.12;39.22
63663;BME280;49815;51.618;0.336;2022-09-06T11:39:03;100507.19;;;21.89;40.54
63663;BME280;49815;51.618;0.336;2022-09-06T11:41:29;100504.57;;;21.70;41.61
63663;BME280;49815;51.618;0.336;2022-09-06T11:43:52;100504.53;;;22.70;40.20
63663;BME280;49815;51.618;0.336;2022-09-06T11:48:48;100505.12;;;22.49;38.98
63663;BME280;49815;51.618;0.336;2022-09-06T11:51:09;100507.81;;;22.33;38.73
63663;BME280;49815;51.618;0.336;2022-09-06T11:53:35;100501.11;;;22.64;38.70
63663;BME280;49815;51.618;0.336;2022-09-06T11:56:09;100490.07;;;22.74;38.56
63663;BME280;49815;51.618;0.336;2022-09-06T11:58:27;100493.74;;;23.09;39.06
63663;BME280;49815;51.618;0.336;2022-09-06T12:08:23;100500.65;;;23.54;37.85
63663;BME280;49815;51.618;0.336;2022-09-06T12:12:54;100494.30;;;23.96;37.54
63663;BME280;49815;51.618;0.336;2022-09-06T12:15:24;100495.07;;;24.21;36.91
63663;BME280;49815;51.618;0.336;2022-09-06T12:17:45;100486.87;;;24.19;36.52
63663;BME280;49815;51.618;0.336;2022-09-06T12:20:09;100488.04;;;24.39;36.40
63663;BME280;49815;51.618;0.336;2022-09-06T12:22:51;100495.71;;;24.35;36.49
63663;BME280;49815;51.618;0.336;2022-09-06T12:25:00;100486.69;;;24.42;35.70
63663;BME280;49815;51.618;0.336;2022-09-06T12:27:24;100487.46;;;24.84;35.81
63663;BME280;49815;51.618;0.336;2022-09-06T12:29:54;100470.46;;;25.40;35.15
63663;BME280;49815;51.618;0.336;2022-09-06T12:32:19;100464.26;;;24.84;35.33
63663;BME280;49815;51.618;0.336;2022-09-06T12:34:39;100474.87;;;24.22;36.08
63663;BME280;49815;51.618;0.336;2022-09-06T12:37:05;100483.68;;;24.40;36.22
63663;BME280;49815;51.618;0.336;2022-09-06T12:39:30;100484.06;;;23.94;37.22
63663;BME280;49815;51.618;0.336;2022-09-06T12:41:55;100478.08;;;24.40;37.18
63663;BME280;49815;51.618;0.336;2022-09-06T12:44:29;100481.48;;;23.94;36.92
63663;BME280;49815;51.618;0.336;2022-09-06T12:46:46;100490.30;;;23.93;37.13
63663;BME280;49815;51.618;0.336;2022-09-06T12:49:11;100483.21;;;24.67;35.81
63663;BME280;49815;51.618;0.336;2022-09-06T12:51:36;100467.22;;;25.00;35.67
63663;BME280;49815;51.618;0.336;2022-09-06T12:54:02;100460.44;;;25.02;35.56
63663;BME280;49815;51.618;0.336;2022-09-06T12:56:27;100454.49;;;25.45;35.54
63663;BME280;49815;51.618;0.336;2022-09-06T12:58:50;100444.96;;;25.83;34.86
63663;BME280;49815;51.618;0.336;2022-09-06T13:01:20;100448.93;;;24.70;35.28
63663;BME280;49815;51.618;0.336;2022-09-06T13:03:43;100445.37;;;24.75;35.28
63663;BME280;49815;51.618;0.336;2022-09-06T13:06:07;100432.94;;;24.95;35.85